Time;durP1;ratioP1;P1;durP2;ratioP2;P2;SDS_P1;SDS_P2;PMS_P1;PMS_P2;Temp;Humidity;BMP_temperature;BMP_pressure;BME280_temperature;BME280_humidity;BME280_pressure;Samples;Min_cycle;Max_cycle;Signal;HPM_P1;HPM_P2
2021/11/16 00:00:00;;;;;;;26.60;13.83;;;;;;;4.53;100.00;102145.53;7400069;19;20384;-43
2021/11/16 00:02:30;;;;;;;24.60;13.80;;;;;;;4.49;100.00;102144.34;7393233;19;20545;-44
2021/11/16 00:04:59;;;;;;;26.13;14.00;;;;;;;4.52;100.00;102138.63;7403162;19;20420;-48
2021/11/16 00:07:29;;;;;;;26.90;14.50;;;;;;;4.48;100.00;102131.44;7396015;19;20444;-47
2021/11/16 00:10:01;;;;;;;28.50;14.23;;;;;;;4.46;100.00;102133.84;7405987;19;20427;-44
2021/11/16 00:12:30;;;;;;;26.70;13.70;;;;;;;4.45;100.00;102127.84;7396869;19;20447;-46
2021/11/16 00:15:00;;;;;;;28.87;14.80;;;;;;;4.50;100.00;102127.38;7403005;19;20455;-51
2021/11/16 00:17:29;;;;;;;31.33;15.33;;;;;;;4.51;100.00;102137.72;7395464;19;20415;-46
2021/11/16 00:19:59;;;;;;;33.53;16.83;;;;;;;4.46;100.00;102133.84;7401920;19;20390;-46
2021/11/16 00:22:29;;;;;;;27.70;13.40;;;;;;;4.39;100.00;102126.41;7394660;19;20697;-46
2021/11/16 00:25:19;;;;;;;29.13;15.13;;;;;;;4.37;100.00;102128.84;7402609;19;20396;-48
2021/11/16 00:27:49;;;;;;;25.47;14.03;;;;;;;4.46;100.00;102124.53;7399158;19;20407;-44
2021/11/16 00:30:20;;;;;;;31.10;14.50;;;;;;;4.41;100.00;102120.66;7401774;19;20472;-44
2021/11/16 00:32:49;;;;;;;29.07;15.83;;;;;;;4.38;100.00;102122.06;7394702;19;20476;-44
2021/11/16 00:35:19;;;;;;;32.30;15.13;;;;;;;4.45;100.00;102126.94;7402246;19;20443;-45
2021/11/16 00:37:49;;;;;;;30.13;16.83;;;;;;;4.45;100.00;102125.31;7395031;19;20430;-47
2021/11/16 00:40:22;;;;;;;32.10;16.27;;;;;;;4.38;100.00;102120.41;7402953;19;20391;-47
2021/11/16 00:42:53;;;;;;;28.80;15.30;;;;;;;4.50;100.00;102114.59;7397720;19;20453;-45
2021/11/16 00:45:22;;;;;;;35.10;15.47;;;;;;;4.47;100.00;102117.78;7401819;19;20383;-48
2021/11/16 00:47:52;;;;;;;30.53;15.23;;;;;;;4.46;100.00;102113.41;7394611;19;20484;-46
2021/11/16 00:50:22;;;;;;;32.03;16.63;;;;;;;4.41;100.00;102118.13;7400646;19;20455;-48
2021/11/16 00:52:52;;;;;;;29.17;14.70;;;;;;;4.36;100.00;102119.34;7393271;19;20470;-44
2021/11/16 00:55:24;;;;;;;31.33;16.33;;;;;;;4.35;100.00;102114.13;7401451;19;20448;-49
2021/11/16 00:57:54;;;;;;;30.80;16.20;;;;;;;4.41;100.00;102117.25;7398979;19;20419;-45
2021/11/16 01:00:24;;;;;;;33.27;15.80;;;;;;;4.44;100.00;102115.84;7400668;19;20455;-49
2021/11/16 01:02:54;;;;;;;31.57;15.67;;;;;;;4.38;100.00;102117.84;7393086;19;20997;-46
2021/11/16 01:05:24;;;;;;;31.03;15.63;;;;;;;4.32;100.00;102109.66;7401125;19;20455;-46
2021/11/16 01:07:53;;;;;;;37.20;19.37;;;;;;;4.38;100.00;102110.19;7394461;19;20531;-49
2021/11/16 01:10:26;;;;;;;29.97;16.27;;;;;;;4.40;100.00;102108.66;7399465;19;20848;-45
2021/11/16 01:12:55;;;;;;;35.73;17.13;;;;;;;4.31;100.00;102107.84;7396725;19;20465;-45
2021/11/16 01:15:25;;;;;;;31.23;16.17;;;;;;;4.27;100.00;102100.66;7400866;19;20489;-48
2021/11/16 01:17:55;;;;;;;36.17;17.50;;;;;;;4.24;100.00;102102.94;7392716;19;20454;-48
2021/11/16 01:20:24;;;;;;;32.90;17.13;;;;;;;4.23;100.00;102101.16;7399419;19;20383;-50
2021/11/16 01:22:57;;;;;;;33.03;16.90;;;;;;;4.26;100.00;102109.97;7392184;19;20429;-48
2021/11/16 01:25:29;;;;;;;38.13;18.70;;;;;;;4.24;100.00;102102.94;7402828;19;20467;-48
2021/11/16 01:28:01;;;;;;;40.73;18.30;;;;;;;4.22;100.00;102096.81;7397069;19;21214;-46
2021/11/16 01:30:32;;;;;;;37.63;18.37;;;;;;;4.22;100.00;102095.16;7398781;19;20904;-46
2021/11/16 01:33:05;;;;;;;36.20;17.37;;;;;;;4.16;100.00;102092.94;7391995;19;20421;-49
2021/11/16 01:35:36;;;;;;;39.87;18.60;;;;;;;4.15;100.00;102088.59;7404769;19;20862;-44
2021/11/16 01:38:06;;;;;;;37.67;18.50;;;;;;;4.16;100.00;102084.38;7393087;19;20423;-48
2021/11/16 01:40:40;;;;;;;36.07;18.27;;;;;;;4.25;100.00;102077.53;7401574;19;20467;-46
2021/11/16 01:43:10;;;;;;;37.43;19.37;;;;;;;4.23;100.00;102081.63;7391924;19;20447;-49
2021/11/16 01:45:57;;;;;;;33.97;19.10;;;;;;;4.17;100.00;102079.41;7399876;19;20856;-48
2021/11/16 01:48:27;;;;;;;39.97;18.00;;;;;;;4.22;100.00;102081.47;7392129;19;20464;-46
2021/11/16 01:50:56;;;;;;;38.90;18.57;;;;;;;4.17;100.00;102081.06;7399169;19;20388;-49
2021/11/16 01:53:26;;;;;;;44.40;18.97;;;;;;;4.24;100.00;102085.06;7390879;19;20415;-50
2021/11/16 01:55:58;;;;;;;41.60;20.23;;;;;;;4.28;100.00;102075.25;7399615;19;20392;-51
2021/11/16 01:58:28;;;;;;;42.53;19.87;;;;;;;4.23;100.00;102080.69;7395672;19;20750;-51
2021/11/16 02:00:58;;;;;;;39.60;19.37;;;;;;;4.15;100.00;102070.72;7398810;19;20394;-47
2021/11/16 02:03:27;;;;;;;42.20;19.07;;;;;;;4.11;100.00;102068.63;7390968;19;20436;-50
2021/11/16 02:06:00;;;;;;;37.07;19.13;;;;;;;4.17;100.00;102071.72;7399235;19;20396;-53
2021/11/16 02:08:29;;;;;;;42.13;21.00;;;;;;;4.16;100.00;102074.16;7391564;19;20780;-50
2021/11/16 02:11:02;;;;;;;38.87;18.90;;;;;;;4.15;100.00;102057.94;7401595;19;20463;-50
2021/11/16 02:13:31;;;;;;;38.33;19.07;;;;;;;4.40;100.00;102056.63;7392806;19;20486;-52
2021/11/16 02:16:01;;;;;;;39.77;18.67;;;;;;;4.52;100.00;102047.47;7394760;19;20451;-48
2021/11/16 02:18:30;;;;;;;39.17;17.90;;;;;;;4.46;100.00;102047.84;7387237;19;20902;-49
2021/11/16 02:21:02;;;;;;;43.23;18.37;;;;;;;4.53;100.00;102035.59;7392215;19;20408;-52
2021/11/16 02:23:32;;;;;;;36.63;17.87;;;;;;;4.48;100.00;102034.31;7389434;19;20415;-49
2021/11/16 02:26:02;;;;;;;36.83;17.37;;;;;;;4.63;100.00;102030.53;7398365;19;20722;-51
2021/11/16 02:28:32;;;;;;;40.27;19.77;;;;;;;4.49;100.00;102024.22;7393873;19;20431;-50
2021/11/16 02:31:01;;;;;;;39.80;19.63;;;;;;;4.40;100.00;102024.31;7397938;19;20463;-44
2021/11/16 02:33:31;;;;;;;41.03;18.60;;;;;;;4.51;100.00;102024.38;7389604;19;20419;-43
2021/11/16 02:36:03;;;;;;;39.97;19.30;;;;;;;4.49;100.00;102021.66;7398298;19;20388;-48
2021/11/16 02:38:33;;;;;;;43.70;20.10;;;;;;;4.48;100.00;102025.00;7390802;19;20524;-47
2021/11/16 02:41:04;;;;;;;43.80;20.50;;;;;;;4.63;100.00;102020.31;7397212;19;20388;-46
2021/11/16 02:43:34;;;;;;;33.83;16.73;;;;;;;4.39;100.00;102019.06;7392306;19;20490;-46
2021/11/16 02:46:04;;;;;;;40.27;19.40;;;;;;;4.44;100.00;102013.59;7397945;19;20401;-44
2021/11/16 02:48:34;;;;;;;39.33;18.60;;;;;;;4.50;100.00;102015.78;7390072;19;20866;-44
2021/11/16 02:51:11;;;;;;;45.13;20.40;;;;;;;4.59;100.00;102008.03;7396364;19;20661;-45
2021/11/16 02:53:42;;;;;;;42.27;19.23;;;;;;;4.65;100.00;102013.66;7392580;19;20526;-45
2021/11/16 02:56:11;;;;;;;42.63;20.63;;;;;;;4.56;100.00;102003.53;7398216;19;20394;-48
2021/11/16 02:58:41;;;;;;;41.27;20.30;;;;;;;4.64;100.00;102011.88;7394097;19;20508;-45
2021/11/16 03:01:13;;;;;;;46.60;20.87;;;;;;;4.63;100.00;102015.19;7397363;19;20391;-46
2021/11/16 03:03:44;;;;;;;39.03;18.50;;;;;;;4.45;100.00;102010.28;7389198;19;20470;-45
2021/11/16 03:06:16;;;;;;;43.23;20.37;;;;;;;4.23;100.00;102011.72;7397961;19;20394;-46
2021/11/16 03:08:46;;;;;;;49.30;20.47;;;;;;;4.23;100.00;102006.59;7390393;19;20425;-48
2021/11/16 03:11:17;;;;;;;46.27;21.47;;;;;;;4.97;100.00;102001.84;7397355;19;20692;-46
2021/11/16 03:13:47;;;;;;;76.30;34.47;;;;;;;5.55;100.00;102004.91;7391868;19;20494;-46
2021/11/16 03:16:20;;;;;;;116.10;54.00;;;;;;;5.29;100.00;102005.28;7398030;19;20417;-45
2021/11/16 03:18:51;;;;;;;75.57;36.60;;;;;;;5.27;100.00;102005.16;7392703;19;20443;-45
2021/11/16 03:21:26;;;;;;;87.30;41.57;;;;;;;5.70;100.00;102010.38;7401764;19;20945;-49
2021/11/16 03:23:57;;;;;;;57.10;26.40;;;;;;;5.75;100.00;102010.75;7387953;19;20455;-45
2021/11/16 03:26:29;;;;;;;88.80;40.27;;;;;;;5.52;100.00;102010.66;7401134;19;20456;-47
2021/11/16 03:29:00;;;;;;;76.70;36.73;;;;;;;5.27;100.00;102008.63;7403922;19;20504;-43
2021/11/16 03:31:37;;;;;;;61.87;28.93;;;;;;;4.96;100.00;102000.03;7404537;19;20389;-44
2021/11/16 03:34:07;;;;;;;63.50;31.37;;;;;;;4.82;100.00;102002.31;7395207;19;20423;-45
2021/11/16 03:36:39;;;;;;;43.37;20.67;;;;;;;4.59;100.00;102001.25;7404294;19;20648;-43
2021/11/16 03:39:08;;;;;;;40.13;19.00;;;;;;;4.60;100.00;101994.47;7396714;19;20487;-44
2021/11/16 03:41:38;;;;;;;53.13;23.77;;;;;;;4.85;100.00;101991.44;7404186;19;20433;-47
2021/11/16 03:44:08;;;;;;;44.97;22.90;;;;;;;4.85;100.00;101991.44;7397542;19;20490;-46
2021/11/16 03:46:37;;;;;;;50.43;23.07;;;;;;;4.85;100.00;101986.34;7403872;19;20645;-43
2021/11/16 03:49:10;;;;;;;48.67;23.00;;;;;;;4.87;100.00;101982.22;7396273;19;20444;-43
2021/11/16 03:51:43;;;;;;;45.53;21.70;;;;;;;4.77;100.00;101984.78;7403953;19;20737;-44
2021/11/16 03:54:14;;;;;;;52.20;23.70;;;;;;;4.81;100.00;101979.16;7394385;19;20421;-47
2021/11/16 03:56:44;;;;;;;74.73;34.80;;;;;;;4.85;100.00;101973.53;7403513;19;20456;-45
2021/11/16 03:59:13;;;;;;;46.50;21.20;;;;;;;4.91;100.00;101973.19;7398747;19;20423;-44
2021/11/16 04:01:43;;;;;;;52.10;23.77;;;;;;;4.88;100.00;101971.25;7403567;19;20455;-45
2021/11/16 04:04:16;;;;;;;55.93;25.57;;;;;;;4.81;100.00;101979.16;7396603;19;20419;-45
2021/11/16 04:06:48;;;;;;;60.10;27.93;;;;;;;4.88;100.00;101975.47;7403289;19;20461;-48
2021/11/16 04:09:18;;;;;;;55.90;25.40;;;;;;;4.78;100.00;101979.81;7400222;19;20506;-45
2021/11/16 04:11:47;;;;;;;49.10;23.23;;;;;;;4.65;100.00;101975.31;7403027;19;20456;-48
2021/11/16 04:14:18;;;;;;;51.10;23.93;;;;;;;4.62;100.00;101969.03;7394507;19;20489;-46
2021/11/16 04:16:47;;;;;;;47.70;22.07;;;;;;;4.72;100.00;101980.19;7402739;19;20468;-45
2021/11/16 04:19:17;;;;;;;46.70;21.83;;;;;;;4.64;100.00;101970.97;7395105;19;20435;-48
2021/11/16 04:21:49;;;;;;;41.37;21.17;;;;;;;4.67;100.00;101975.44;7402714;19;20653;-48
2021/11/16 04:24:19;;;;;;;46.27;21.13;;;;;;;4.66;100.00;101966.88;7393538;19;20905;-45
2021/11/16 04:26:49;;;;;;;46.87;21.80;;;;;;;4.64;100.00;101973.53;7400201;19;20380;-42
2021/11/16 04:29:18;;;;;;;43.63;20.97;;;;;;;4.42;100.00;101965.69;7397446;19;20407;-44
2021/11/16 04:31:48;;;;;;;46.70;22.90;;;;;;;4.52;100.00;101965.69;7402498;19;20673;-48
2021/11/16 04:34:18;;;;;;;47.80;23.93;;;;;;;4.36;100.00;101971.13;7396586;19;20924;-44
2021/11/16 04:36:50;;;;;;;40.70;20.83;;;;;;;4.42;100.00;101969.13;7401143;19;20455;-50
2021/11/16 04:39:20;;;;;;;48.30;22.97;;;;;;;4.44;100.00;101971.81;7397954;19;20471;-49
2021/11/16 04:41:49;;;;;;;53.13;23.60;;;;;;;4.50;100.00;101961.22;7402113;19;20660;-48
2021/11/16 04:44:20;;;;;;;49.93;22.87;;;;;;;4.64;100.00;101959.84;7396389;19;20523;-44
2021/11/16 04:46:49;;;;;;;44.30;21.30;;;;;;;4.48;100.00;101957.63;7399864;19;20467;-46
2021/11/16 04:49:24;;;;;;;44.90;22.13;;;;;;;4.33;100.00;101963.22;7397928;19;20428;-47
2021/11/16 04:52:09;;;;;;;47.37;21.47;;;;;;;4.34;100.00;101959.91;7402697;19;20451;-49
2021/11/16 04:55:07;;;;;;;43.43;20.70;;;;;;;4.40;100.00;101949.28;7401189;19;20419;-48
2021/11/16 05:03:15;;;;;;;55.47;24.20;;;;;;;4.38;100.00;101944.06;7392154;19;20419;-48
2021/11/16 05:05:44;;;;;;;48.10;21.60;;;;;;;4.23;100.00;101950.41;7400650;19;20460;-46
2021/11/16 05:08:17;;;;;;;48.53;22.17;;;;;;;4.24;100.00;101948.00;7395588;19;20450;-46
2021/11/16 05:10:46;;;;;;;41.80;19.70;;;;;;;4.50;100.00;101944.22;7400356;19;20713;-49
2021/11/16 05:13:16;;;;;;;44.07;21.63;;;;;;;4.36;100.00;101945.56;7396233;19;20430;-50
2021/11/16 05:15:45;;;;;;;46.83;21.70;;;;;;;4.27;100.00;101943.16;7401069;19;20382;-51
2021/11/16 05:18:14;;;;;;;43.47;21.87;;;;;;;4.38;100.00;101931.28;7394528;19;20523;-51
2021/11/16 05:20:44;;;;;;;44.60;22.67;;;;;;;4.43;100.00;101935.16;7399777;19;20413;-50
2021/11/16 05:23:18;;;;;;;44.00;21.23;;;;;;;4.34;100.00;101934.34;7392653;19;20510;-49
2021/11/16 05:25:51;;;;;;;41.03;20.37;;;;;;;4.41;100.00;101931.53;7400089;19;20396;-49
2021/11/16 05:28:22;;;;;;;47.00;21.03;;;;;;;4.34;100.00;101929.22;7394286;19;20687;-51
2021/11/16 05:30:51;;;;;;;44.80;21.00;;;;;;;4.31;100.00;101937.53;7399522;19;20392;-49
2021/11/16 05:33:22;;;;;;;47.53;22.47;;;;;;;4.28;100.00;101949.16;7391761;19;20490;-50
2021/11/16 05:35:52;;;;;;;40.60;20.67;;;;;;;4.36;100.00;101939.59;7400578;19;20658;-49
2021/11/16 05:38:28;;;;;;;48.00;21.50;;;;;;;4.52;100.00;101946.91;7393340;19;20479;-52
2021/11/16 05:40:59;;;;;;;47.50;20.77;;;;;;;4.70;100.00;101948.47;7399246;19;20371;-51
2021/11/16 05:43:29;;;;;;;40.20;20.47;;;;;;;4.72;100.00;101952.06;7395681;19;20780;-52
2021/11/16 05:45:59;;;;;;;44.10;21.90;;;;;;;4.63;100.00;101964.06;7399460;19;20380;-51
2021/11/16 05:48:34;;;;;;;48.07;20.57;;;;;;;4.66;100.00;101963.44;7390309;19;20423;-52
2021/11/16 05:51:04;;;;;;;48.70;21.07;;;;;;;4.63;100.00;101966.63;7399024;19;20463;-49
2021/11/16 05:53:37;;;;;;;48.47;20.47;;;;;;;4.66;100.00;101969.44;7391127;19;20495;-48
2021/11/16 05:56:07;;;;;;;44.03;22.10;;;;;;;4.91;100.00;101960.41;7399705;19;20384;-44
2021/11/16 05:58:37;;;;;;;43.70;22.00;;;;;;;4.80;100.00;101965.50;7396067;19;20484;-45
2021/11/16 06:01:06;;;;;;;43.27;20.20;;;;;;;4.67;100.00;101963.53;7398558;19;20375;-45
2021/11/16 06:03:36;;;;;;;42.63;19.30;;;;;;;4.67;100.00;101966.09;7389363;19;20483;-44
2021/11/16 06:06:07;;;;;;;44.30;19.83;;;;;;;4.66;100.00;101959.19;7398965;19;20675;-45
2021/11/16 06:08:39;;;;;;;42.70;19.67;;;;;;;4.90;100.00;101963.69;7392101;19;20426;-46
2021/11/16 06:11:08;;;;;;;44.47;20.90;;;;;;;4.86;100.00;101957.44;7399216;19;20403;-45
2021/11/16 06:13:38;;;;;;;38.00;18.83;;;;;;;4.68;100.00;101967.00;7395523;19;20450;-47
2021/11/16 06:16:07;;;;;;;50.97;20.57;;;;;;;4.55;100.00;101962.50;7399175;19;20459;-44
2021/11/16 06:18:37;;;;;;;43.77;19.77;;;;;;;4.68;100.00;101957.66;7391097;19;20443;-44
2021/11/16 06:21:07;;;;;;;40.93;19.10;;;;;;;4.52;100.00;101964.81;7397861;19;20384;-45
2021/11/16 06:23:39;;;;;;;41.70;20.17;;;;;;;4.57;100.00;101961.00;7390070;19;20479;-48
2021/11/16 06:26:09;;;;;;;38.43;19.23;;;;;;;4.61;100.00;101957.03;7399257;19;20400;-47
2021/11/16 06:28:38;;;;;;;42.73;20.07;;;;;;;4.65;100.00;101959.97;7394897;19;20424;-46
2021/11/16 06:31:08;;;;;;;33.97;18.90;;;;;;;4.73;100.00;101955.50;7397655;19;20467;-43
2021/11/16 06:33:37;;;;;;;40.27;20.00;;;;;;;4.73;100.00;101961.50;7389841;19;20884;-46
2021/11/16 06:36:08;;;;;;;36.57;18.37;;;;;;;4.73;100.00;101971.72;7398730;19;20455;-47
2021/11/16 06:38:40;;;;;;;39.20;19.13;;;;;;;4.68;100.00;101962.78;7391039;19;20870;-44
2021/11/16 06:41:10;;;;;;;40.30;19.13;;;;;;;4.95;100.00;101955.66;7397518;19;20412;-50
2021/11/16 06:43:39;;;;;;;38.87;18.17;;;;;;;4.97;100.00;101956.69;7393672;19;20453;-48
2021/11/16 06:46:09;;;;;;;34.67;17.30;;;;;;;4.80;100.00;101956.91;7397743;19;20455;-45
2021/11/16 06:48:39;;;;;;;38.73;17.80;;;;;;;5.41;100.00;101960.25;7390863;19;20892;-47
2021/11/16 06:51:08;;;;;;;41.10;20.53;;;;;;;5.80;100.00;101956.56;7397342;19;20460;-48
2021/11/16 06:53:40;;;;;;;115.60;53.40;;;;;;;6.47;100.00;101948.97;7388359;19;20424;-46
2021/11/16 06:56:12;;;;;;;118.47;56.90;;;;;;;6.74;100.00;101949.34;7397843;19;20385;-48
2021/11/16 06:58:42;;;;;;;35.60;17.20;;;;;;;5.93;100.00;101972.91;7392554;19;20486;-48
2021/11/16 07:01:11;;;;;;;34.90;18.10;;;;;;;5.24;100.00;101972.53;7403322;19;20394;-49
2021/11/16 07:03:41;;;;;;;30.13;16.73;;;;;;;4.85;100.00;101965.88;7395621;19;20420;-45
2021/11/16 07:06:10;;;;;;;31.60;17.20;;;;;;;4.72;100.00;101969.06;7404840;19;20393;-47
2021/11/16 07:08:45;;;;;;;33.60;16.90;;;;;;;4.59;100.00;101967.13;7397790;19;20710;-47
2021/11/16 07:11:17;;;;;;;33.50;16.87;;;;;;;4.42;100.00;101968.22;7404097;19;20453;-48
2021/11/16 07:14:01;;;;;;;30.17;16.47;;;;;;;4.43;100.00;101965.81;7399660;19;20894;-47
2021/11/16 07:16:34;;;;;;;34.23;17.60;;;;;;;4.33;100.00;101971.75;7405112;19;20379;-47
2021/11/16 07:19:08;;;;;;;38.50;18.80;;;;;;;4.30;100.00;101970.59;7396886;19;20487;-47
2021/11/16 07:21:46;;;;;;;31.70;17.00;;;;;;;4.23;100.00;101970.84;7404585;19;20388;-47
2021/11/16 07:24:21;;;;;;;40.70;19.43;;;;;;;4.21;100.00;101967.25;7394474;19;20471;-43
2021/11/16 07:26:57;;;;;;;34.73;18.10;;;;;;;4.10;100.00;101967.22;7405635;19;20850;-47
2021/11/16 07:29:35;;;;;;;29.63;16.57;;;;;;;4.01;100.00;101971.53;7402249;19;20411;-46
2021/11/16 07:32:06;;;;;;;31.07;16.63;;;;;;;4.07;100.00;101969.53;7398979;19;20810;-47
2021/11/16 07:34:38;;;;;;;32.90;17.13;;;;;;;4.07;100.00;101964.41;7404162;19;20388;-48
2021/11/16 07:37:09;;;;;;;32.57;18.00;;;;;;;4.15;100.00;101963.41;7397456;19;20396;-48
2021/11/16 07:39:52;;;;;;;35.93;18.50;;;;;;;4.19;100.00;101955.25;7403028;19;20394;-46
2021/11/16 07:42:23;;;;;;;30.17;16.60;;;;;;;4.22;100.00;101959.75;7396397;19;20431;-46
2021/11/16 07:45:12;;;;;;;37.30;18.93;;;;;;;4.14;100.00;101959.06;7403949;19;20404;-46
2021/11/16 07:47:45;;;;;;;37.30;19.10;;;;;;;4.15;100.00;101958.31;7396193;19;20419;-46
2021/11/16 07:50:22;;;;;;;41.13;18.43;;;;;;;4.29;100.00;101961.16;7403367;19;20406;-47
2021/11/16 07:52:51;;;;;;;38.43;17.80;;;;;;;4.30;100.00;101957.81;7395964;19;20410;-45
2021/11/16 07:55:29;;;;;;;37.33;18.30;;;;;;;4.22;100.00;101957.19;7403314;19;20451;-45
2021/11/16 07:57:58;;;;;;;31.37;17.60;;;;;;;4.20;100.00;101951.03;7397033;19;20425;-45
2021/11/16 08:00:28;;;;;;;36.10;18.20;;;;;;;5.08;100.00;101951.56;7402928;19;20407;-45
2021/11/16 08:03:03;;;;;;;50.40;26.20;;;;;;;5.92;100.00;101943.84;7396028;19;20715;-48
2021/11/16 08:05:44;;;;;;;91.40;44.30;;;;;;;6.30;100.00;101945.09;7403330;19;20692;-50
2021/11/16 08:08:22;;;;;;;82.90;41.90;;;;;;;5.99;100.00;101958.03;7395001;19;20488;-46
2021/11/16 08:11:08;;;;;;;36.67;19.07;;;;;;;5.87;100.00;101962.16;7401702;19;20415;-44
2021/11/16 08:13:38;;;;;;;37.77;19.50;;;;;;;5.20;100.00;101970.50;7394384;19;20486;-44
2021/11/16 08:16:10;;;;;;;38.80;18.50;;;;;;;5.14;100.00;101970.00;7403145;19;20876;-46
2021/11/16 08:18:47;;;;;;;129.20;60.57;;;;;;;5.34;100.00;101953.72;7395784;19;20447;-46
2021/11/16 08:21:19;;;;;;;92.57;43.23;;;;;;;5.70;100.00;101953.13;7401983;19;20839;-49
2021/11/16 08:23:51;;;;;;;41.60;20.47;;;;;;;5.63;100.00;101951.72;7393952;19;20515;-46
2021/11/16 08:26:29;;;;;;;50.47;27.53;;;;;;;5.91;100.00;101957.41;7402826;19;20397;-51
2021/11/16 08:28:59;;;;;;;64.60;29.83;;;;;;;5.80;100.00;101960.81;7394170;19;20930;-45
2021/11/16 08:31:36;;;;;;;50.43;23.80;;;;;;;5.91;100.00;101959.97;7402376;19;20486;-48
2021/11/16 08:34:07;;;;;;;40.70;21.70;;;;;;;5.98;100.00;101956.25;7393633;19;20882;-47
2021/11/16 08:36:46;;;;;;;45.50;23.70;;;;;;;6.15;100.00;101959.31;7402502;19;20912;-50
2021/11/16 08:39:16;;;;;;;41.07;21.50;;;;;;;6.11;100.00;101962.38;7398301;19;20433;-45
2021/11/16 08:41:49;;;;;;;45.20;21.50;;;;;;;6.24;100.00;101960.00;7404896;19;20677;-53
2021/11/16 08:44:26;;;;;;;38.57;20.90;;;;;;;6.16;100.00;101959.41;7393295;19;20918;-48
2021/11/16 08:46:56;;;;;;;57.23;31.70;;;;;;;6.08;100.00;101958.81;7394134;19;20894;-53
2021/11/16 08:49:28;;;;;;;88.17;43.77;;;;;;;6.59;100.00;101954.19;7400802;19;20476;-50
2021/11/16 08:51:59;;;;;;;73.03;35.83;;;;;;;6.05;100.00;101967.94;7394781;19;20906;-53
2021/11/16 08:54:35;;;;;;;41.60;18.50;;;;;;;5.31;100.00;101962.78;7401404;19;20708;-53
2021/11/16 08:57:08;;;;;;;40.87;21.73;;;;;;;4.89;100.00;101964.47;7395388;19;20385;-50
2021/11/16 08:59:38;;;;;;;42.07;21.87;;;;;;;4.75;100.00;101951.41;7397715;19;20410;-52
2021/11/16 09:02:09;;;;;;;43.27;23.37;;;;;;;4.69;100.00;101946.69;7396688;19;20456;-52
2021/11/16 09:04:42;;;;;;;40.70;21.10;;;;;;;4.73;100.00;101937.63;7403270;19;20403;-52
2021/11/16 09:07:20;;;;;;;41.60;20.70;;;;;;;4.65;100.00;101939.53;7396190;19;20404;-49
2021/11/16 09:09:55;;;;;;;41.53;21.70;;;;;;;4.51;100.00;101937.47;7404765;19;20543;-53
2021/11/16 09:12:42;;;;;;;46.70;22.30;;;;;;;4.46;100.00;101926.81;7394219;19;20450;-51
2021/11/16 09:15:17;;;;;;;86.93;39.43;;;;;;;4.49;100.00;101921.97;7401040;19;20488;-44
2021/11/16 09:17:47;;;;;;;53.70;25.27;;;;;;;4.52;100.00;101918.78;7394773;19;20502;-44
2021/11/16 09:20:20;;;;;;;50.63;25.73;;;;;;;4.57;100.00;101922.66;7401916;19;20407;-48
2021/11/16 09:22:50;;;;;;;45.00;20.93;;;;;;;4.57;100.00;101922.66;7392448;19;20445;-46
2021/11/16 09:25:25;;;;;;;44.83;21.20;;;;;;;4.52;100.00;101917.13;7400431;19;20395;-46
2021/11/16 09:28:05;;;;;;;48.83;24.00;;;;;;;4.59;100.00;101921.09;7392725;19;20431;-45
2021/11/16 09:30:41;;;;;;;50.50;22.10;;;;;;;4.45;100.00;101918.28;7399752;19;20388;-47
2021/11/16 09:33:13;;;;;;;52.23;24.10;;;;;;;4.42;100.00;101918.00;7391423;19;20407;-46
2021/11/16 09:35:55;;;;;;;42.40;21.70;;;;;;;4.38;100.00;101908.28;7400940;19;20384;-48
2021/11/16 09:38:47;;;;;;;44.83;22.00;;;;;;;4.49;100.00;101910.84;7392886;19;20437;-45
2021/11/16 09:41:23;;;;;;;48.17;22.70;;;;;;;4.57;100.00;101917.53;7399416;19;20451;-49
2021/11/16 09:44:06;;;;;;;40.07;20.67;;;;;;;4.57;100.00;101913.28;7391443;19;20490;-46
2021/11/16 09:46:45;;;;;;;46.83;20.20;;;;;;;4.51;100.00;101914.47;7399960;19;20396;-45
2021/11/16 09:49:17;;;;;;;47.40;23.57;;;;;;;4.37;100.00;101916.72;7390363;19;20495;-46
2021/11/16 09:51:57;;;;;;;49.43;22.90;;;;;;;4.44;100.00;101910.47;7398479;19;20443;-48
2021/11/16 09:54:29;;;;;;;51.67;23.40;;;;;;;4.50;100.00;101905.88;7399205;19;20436;-47
2021/11/16 09:57:08;;;;;;;47.70;22.60;;;;;;;4.43;100.00;101894.25;7392797;19;20395;-44
2021/11/16 09:59:42;;;;;;;52.40;22.87;;;;;;;4.45;100.00;101891.81;7398629;19;20383;-45
2021/11/16 10:02:18;;;;;;;59.17;27.00;;;;;;;4.48;100.00;101894.63;7391668;19;20394;-45
2021/11/16 10:04:52;;;;;;;53.60;24.60;;;;;;;4.48;100.00;101886.97;7397654;19;20664;-48
2021/11/16 10:07:23;;;;;;;53.00;24.80;;;;;;;4.52;100.00;101883.00;7395432;19;20410;-47
2021/11/16 10:09:53;;;;;;;51.07;24.93;;;;;;;4.32;100.00;101879.66;7397083;19;20392;-44
2021/11/16 10:12:24;;;;;;;53.33;25.70;;;;;;;4.36;100.00;101879.13;7391563;19;20479;-50
2021/11/16 10:14:57;;;;;;;53.30;23.13;;;;;;;4.24;100.00;101872.97;7399109;19;20391;-46
2021/11/16 10:17:26;;;;;;;49.87;24.10;;;;;;;4.14;100.00;101864.53;7391530;19;20494;-45
2021/11/16 10:19:56;;;;;;;53.17;23.97;;;;;;;4.15;100.00;101863.78;7398477;19;20404;-46
2021/11/16 10:22:25;;;;;;;47.50;24.83;;;;;;;4.23;100.00;101855.88;7391190;19;20494;-45
2021/11/16 10:25:11;;;;;;;47.27;22.43;;;;;;;4.27;100.00;101855.38;7398838;19;20392;-47
2021/11/16 10:27:41;;;;;;;52.60;24.30;;;;;;;4.32;100.00;101864.34;7391399;19;20441;-47
2021/11/16 10:30:17;;;;;;;56.20;24.27;;;;;;;4.21;100.00;101860.88;7395865;19;20463;-46
2021/11/16 10:32:48;;;;;;;54.47;25.13;;;;;;;4.39;100.00;101851.31;7390919;19;20493;-48
2021/11/16 10:35:21;;;;;;;53.00;23.20;;;;;;;4.18;100.00;101845.25;7402483;19;20420;-45
2021/11/16 10:37:56;;;;;;;54.07;24.00;;;;;;;4.18;100.00;101845.25;7399073;19;20407;-45
2021/11/16 10:40:27;;;;;;;53.00;25.43;;;;;;;4.14;100.00;101840.66;7405499;19;20723;-44
2021/11/16 10:43:00;;;;;;;54.33;25.27;;;;;;;4.09;100.00;101832.59;7397761;19;20599;-47
2021/11/16 10:45:34;;;;;;;54.43;25.90;;;;;;;4.15;100.00;101835.69;7401906;19;20455;-49
2021/11/16 10:48:08;;;;;;;58.17;25.03;;;;;;;4.08;100.00;101825.72;7398366;19;20851;-47
2021/11/16 10:50:39;;;;;;;60.10;25.00;;;;;;;4.01;100.00;101823.41;7405027;19;20491;-52
2021/11/16 10:53:11;;;;;;;54.40;24.53;;;;;;;4.03;100.00;101819.31;7396590;19;20435;-48
2021/11/16 10:55:44;;;;;;;58.50;24.80;;;;;;;4.09;100.00;101812.16;7404923;19;20448;-50
2021/11/16 10:58:15;;;;;;;57.13;24.40;;;;;;;4.10;100.00;101810.53;7402313;19;20495;-47
2021/11/16 11:00:52;;;;;;;58.40;25.43;;;;;;;4.08;100.00;101807.81;7404754;19;20447;-50
2021/11/16 11:03:26;;;;;;;53.77;23.50;;;;;;;4.12;100.00;101801.31;7395978;19;20444;-50
2021/11/16 11:05:58;;;;;;;59.20;24.93;;;;;;;4.07;100.00;101800.94;7405461;19;20472;-47
2021/11/16 11:08:40;;;;;;;59.07;26.03;;;;;;;4.04;100.00;101798.09;7398723;19;20775;-50
2021/11/16 11:11:17;;;;;;;58.57;25.20;;;;;;;4.08;100.00;101792.50;7404516;19;20697;-47
2021/11/16 11:14:06;;;;;;;63.10;26.20;;;;;;;4.00;100.00;101779.06;7395995;19;20406;-48
2021/11/16 11:16:40;;;;;;;58.07;26.00;;;;;;;4.09;100.00;101773.84;7405182;19;20447;-49
2021/11/16 11:19:12;;;;;;;57.77;23.83;;;;;;;4.00;100.00;101773.97;7399615;19;20423;-52
2021/11/16 11:21:47;;;;;;;61.73;26.50;;;;;;;3.91;100.00;101774.06;7405701;19;20399;-51
2021/11/16 11:24:22;;;;;;;58.67;24.87;;;;;;;3.99;100.00;101766.19;7395123;19;20439;-49
2021/11/16 11:26:59;;;;;;;56.40;24.97;;;;;;;4.01;100.00;101764.66;7404701;19;20471;-45
2021/11/16 11:29:36;;;;;;;62.53;26.57;;;;;;;3.97;100.00;101758.41;7401447;19;20893;-48
2021/11/16 11:32:18;;;;;;;57.90;25.60;;;;;;;3.96;100.00;101750.59;7400094;19;20404;-48
2021/11/16 11:34:50;;;;;;;55.23;25.20;;;;;;;4.02;100.00;101754.56;7404414;19;20848;-49
2021/11/16 11:37:22;;;;;;;54.90;25.07;;;;;;;3.98;100.00;101752.53;7396905;19;20474;-48